sensor_id;sensor_type;location;lat;lon;timestamp;P1;durP1;ratioP1;P2;durP2;ratioP2
20671;SDS011;10495;50.922;4.760;2022-10-16T00:02:20;2.37;;;1.53;;
20671;SDS011;10495;50.922;4.760;2022-10-16T00:04:45;3.87;;;1.60;;
20671;SDS011;10495;50.922;4.760;2022-10-16T00:07:11;2.00;;;1.40;;
20671;SDS011;10495;50.922;4.760;2022-10-16T00:09:36;3.87;;;1.60;;
20671;SDS011;10495;50.922;4.760;2022-10-16T00:12:02;4.03;;;1.70;;
20671;SDS011;10495;50.922;4.760;2022-10-16T00:14:29;3.93;;;1.40;;
20671;SDS011;10495;50.922;4.760;2022-10-16T00:16:55;3.30;;;1.70;;
20671;SDS011;10495;50.922;4.760;2022-10-16T00:19:20;3.30;;;1.90;;
20671;SDS011;10495;50.922;4.760;2022-10-16T00:21:46;2.37;;;1.43;;
20671;SDS011;10495;50.922;4.760;2022-10-16T00:24:12;3.20;;;1.30;;
20671;SDS011;10495;50.922;4.760;2022-10-16T00:26:37;3.97;;;1.57;;
20671;SDS011;10495;50.922;4.760;2022-10-16T00:29:03;2.13;;;1.33;;
20671;SDS011;10495;50.922;4.760;2022-10-16T00:31:30;3.90;;;1.60;;
20671;SDS011;10495;50.922;4.760;2022-10-16T00:33:55;3.17;;;1.20;;
20671;SDS011;10495;50.922;4.760;2022-10-16T00:36:22;2.53;;;1.30;;
20671;SDS011;10495;50.922;4.760;2022-10-16T00:38:52;1.63;;;1.20;;
20671;SDS011;10495;50.922;4.760;2022-10-16T00:41:19;4.10;;;1.10;;
20671;SDS011;10495;50.922;4.760;2022-10-16T00:43:48;1.83;;;1.30;;
20671;SDS011;10495;50.922;4.760;2022-10-16T00:46:27;2.07;;;1.40;;
20671;SDS011;10495;50.922;4.760;2022-10-16T00:51:34;2.27;;;1.20;;
20671;SDS011;10495;50.922;4.760;2022-10-16T00:54:13;2.80;;;1.13;;
20671;SDS011;10495;50.922;4.760;2022-10-16T00:56:42;2.83;;;1.27;;
20671;SDS011;10495;50.922;4.760;2022-10-16T00:59:19;2.30;;;1.50;;
20671;SDS011;10495;50.922;4.760;2022-10-16T01:01:51;3.47;;;1.40;;
20671;SDS011;10495;50.922;4.760;2022-10-16T01:04:17;4.40;;;0.97;;
20671;SDS011;10495;50.922;4.760;2022-10-16T01:09:22;2.43;;;1.17;;
20671;SDS011;10495;50.922;4.760;2022-10-16T01:14:39;1.80;;;1.00;;
20671;SDS011;10495;50.922;4.760;2022-10-16T01:17:18;2.10;;;1.10;;
20671;SDS011;10495;50.922;4.760;2022-10-16T01:22:33;1.87;;;1.10;;
20671;SDS011;10495;50.922;4.760;2022-10-16T01:25:05;1.50;;;1.30;;
20671;SDS011;10495;50.922;4.760;2022-10-16T01:27:37;6.57;;;1.20;;
20671;SDS011;10495;50.922;4.760;2022-10-16T01:32:56;1.80;;;1.27;;
20671;SDS011;10495;50.922;4.760;2022-10-16T01:35:42;1.50;;;1.40;;
20671;SDS011;10495;50.922;4.760;2022-10-16T01:40:47;2.43;;;1.20;;
20671;SDS011;10495;50.922;4.760;2022-10-16T01:43:21;2.33;;;1.40;;
20671;SDS011;10495;50.922;4.760;2022-10-16T01:45:51;2.23;;;1.03;;
20671;SDS011;10495;50.922;4.760;2022-10-16T01:48:18;1.93;;;0.97;;
20671;SDS011;10495;50.922;4.760;2022-10-16T01:50:49;2.27;;;1.20;;
20671;SDS011;10495;50.922;4.760;2022-10-16T01:53:20;1.80;;;1.10;;
20671;SDS011;10495;50.922;4.760;2022-10-16T01:55:48;3.60;;;1.23;;
20671;SDS011;10495;50.922;4.760;2022-10-16T01:58:15;1.10;;;1.00;;
20671;SDS011;10495;50.922;4.760;2022-10-16T02:00:42;1.73;;;1.10;;
20671;SDS011;10495;50.922;4.760;2022-10-16T02:03:11;2.37;;;1.37;;
20671;SDS011;10495;50.922;4.760;2022-10-16T02:05:45;2.17;;;1.20;;
20671;SDS011;10495;50.922;4.760;2022-10-16T02:08:14;4.20;;;1.47;;
20671;SDS011;10495;50.922;4.760;2022-10-16T02:10:40;1.43;;;1.10;;
20671;SDS011;10495;50.922;4.760;2022-10-16T02:13:07;1.30;;;1.10;;
20671;SDS011;10495;50.922;4.760;2022-10-16T02:15:36;2.03;;;1.30;;
20671;SDS011;10495;50.922;4.760;2022-10-16T02:18:03;2.13;;;1.40;;
20671;SDS011;10495;50.922;4.760;2022-10-16T02:20:32;1.43;;;1.13;;
20671;SDS011;10495;50.922;4.760;2022-10-16T02:23:05;4.80;;;1.37;;
20671;SDS011;10495;50.922;4.760;2022-10-16T02:25:37;1.17;;;1.07;;
20671;SDS011;10495;50.922;4.760;2022-10-16T02:28:17;4.10;;;1.50;;
20671;SDS011;10495;50.922;4.760;2022-10-16T02:30:52;2.10;;;1.40;;
20671;SDS011;10495;50.922;4.760;2022-10-16T02:33:26;2.03;;;1.60;;
20671;SDS011;10495;50.922;4.760;2022-10-16T02:35:54;3.27;;;1.40;;
20671;SDS011;10495;50.922;4.760;2022-10-16T02:38:21;1.93;;;1.07;;
20671;SDS011;10495;50.922;4.760;2022-10-16T02:40:49;2.87;;;1.30;;
20671;SDS011;10495;50.922;4.760;2022-10-16T02:43:15;4.80;;;1.50;;
20671;SDS011;10495;50.922;4.760;2022-10-16T02:45:41;1.73;;;1.40;;
20671;SDS011;10495;50.922;4.760;2022-10-16T02:48:07;1.70;;;1.30;;
20671;SDS011;10495;50.922;4.760;2022-10-16T02:50:32;3.97;;;1.23;;
20671;SDS011;10495;50.922;4.760;2022-10-16T02:52:58;1.83;;;1.17;;
20671;SDS011;10495;50.922;4.760;2022-10-16T02:55:24;2.53;;;1.40;;
20671;SDS011;10495;50.922;4.760;2022-10-16T02:57:49;1.57;;;1.13;;
20671;SDS011;10495;50.922;4.760;2022-10-16T03:00:16;2.47;;;1.37;;
20671;SDS011;10495;50.922;4.760;2022-10-16T03:02:42;2.70;;;1.00;;
20671;SDS011;10495;50.922;4.760;2022-10-16T03:05:09;1.47;;;1.37;;
20671;SDS011;10495;50.922;4.760;2022-10-16T03:07:35;2.30;;;1.30;;
20671;SDS011;10495;50.922;4.760;2022-10-16T03:10:01;4.47;;;1.90;;
20671;SDS011;10495;50.922;4.760;2022-10-16T03:12:27;3.83;;;1.60;;
20671;SDS011;10495;50.922;4.760;2022-10-16T03:14:53;3.60;;;1.50;;
20671;SDS011;10495;50.922;4.760;2022-10-16T03:17:18;1.77;;;1.30;;
20671;SDS011;10495;50.922;4.760;2022-10-16T03:19:44;3.97;;;1.47;;
20671;SDS011;10495;50.922;4.760;2022-10-16T03:22:10;3.93;;;1.63;;
20671;SDS011;10495;50.922;4.760;2022-10-16T03:24:35;1.53;;;1.20;;
20671;SDS011;10495;50.922;4.760;2022-10-16T03:27:01;1.53;;;1.30;;
20671;SDS011;10495;50.922;4.760;2022-10-16T03:29:27;1.70;;;1.37;;
20671;SDS011;10495;50.922;4.760;2022-10-16T03:31:54;1.73;;;1.40;;
20671;SDS011;10495;50.922;4.760;2022-10-16T03:34:20;1.43;;;1.20;;
20671;SDS011;10495;50.922;4.760;2022-10-16T03:36:46;2.90;;;1.50;;
20671;SDS011;10495;50.922;4.760;2022-10-16T03:39:11;6.47;;;1.80;;
20671;SDS011;10495;50.922;4.760;2022-10-16T03:41:37;2.00;;;1.40;;
20671;SDS011;10495;50.922;4.760;2022-10-16T03:44:02;2.33;;;1.37;;
20671;SDS011;10495;50.922;4.760;2022-10-16T03:46:28;1.93;;;1.37;;
20671;SDS011;10495;50.922;4.760;2022-10-16T03:48:54;1.50;;;1.17;;
20671;SDS011;10495;50.922;4.760;2022-10-16T03:51:20;1.80;;;1.17;;
20671;SDS011;10495;50.922;4.760;2022-10-16T03:53:46;2.73;;;1.33;;
20671;SDS011;10495;50.922;4.760;2022-10-16T03:56:11;3.10;;;1.70;;
20671;SDS011;10495;50.922;4.760;2022-10-16T03:58:37;2.07;;;1.30;;
20671;SDS011;10495;50.922;4.760;2022-10-16T04:01:02;1.60;;;1.50;;
20671;SDS011;10495;50.922;4.760;2022-10-16T04:03:28;2.47;;;1.30;;
20671;SDS011;10495;50.922;4.760;2022-10-16T04:05:54;1.40;;;1.20;;
20671;SDS011;10495;50.922;4.760;2022-10-16T04:08:19;2.53;;;1.70;;
20671;SDS011;10495;50.922;4.760;2022-10-16T04:10:45;1.93;;;1.50;;
20671;SDS011;10495;50.922;4.760;2022-10-16T04:13:11;3.70;;;1.30;;
20671;SDS011;10495;50.922;4.760;2022-10-16T04:15:37;2.07;;;1.50;;
20671;SDS011;10495;50.922;4.760;2022-10-16T04:18:03;1.37;;;1.27;;
20671;SDS011;10495;50.922;4.760;2022-10-16T04:20:30;2.50;;;1.53;;
20671;SDS011;10495;50.922;4.760;2022-10-16T04:22:56;1.70;;;1.30;;
20671;SDS011;10495;50.922;4.760;2022-10-16T04:25:21;1.70;;;1.30;;
20671;SDS011;10495;50.922;4.760;2022-10-16T04:27:47;3.10;;;1.63;;
20671;SDS011;10495;50.922;4.760;2022-10-16T04:30:13;2.37;;;1.73;;
20671;SDS011;10495;50.922;4.760;2022-10-16T04:32:39;3.13;;;1.90;;
20671;SDS011;10495;50.922;4.760;2022-10-16T04:35:05;4.33;;;1.80;;
20671;SDS011;10495;50.922;4.760;2022-10-16T04:37:30;3.17;;;1.80;;
20671;SDS011;10495;50.922;4.760;2022-10-16T04:39:56;2.97;;;1.60;;
20671;SDS011;10495;50.922;4.760;2022-10-16T04:42:22;1.73;;;1.47;;
20671;SDS011;10495;50.922;4.760;2022-10-16T04:44:47;3.63;;;2.10;;
20671;SDS011;10495;50.922;4.760;2022-10-16T04:47:13;5.00;;;1.70;;
20671;SDS011;10495;50.922;4.760;2022-10-16T04:49:38;2.80;;;2.03;;
20671;SDS011;10495;50.922;4.760;2022-10-16T04:52:04;4.27;;;2.37;;
20671;SDS011;10495;50.922;4.760;2022-10-16T04:54:30;2.53;;;2.00;;
20671;SDS011;10495;50.922;4.760;2022-10-16T04:56:55;2.73;;;1.67;;
20671;SDS011;10495;50.922;4.760;2022-10-16T04:59:21;2.37;;;2.00;;
20671;SDS011;10495;50.922;4.760;2022-10-16T05:01:47;5.27;;;2.13;;
20671;SDS011;10495;50.922;4.760;2022-10-16T05:04:13;2.90;;;1.83;;
20671;SDS011;10495;50.922;4.760;2022-10-16T05:06:40;1.87;;;1.63;;
20671;SDS011;10495;50.922;4.760;2022-10-16T05:09:06;3.70;;;1.93;;
20671;SDS011;10495;50.922;4.760;2022-10-16T05:11:32;3.23;;;1.40;;
20671;SDS011;10495;50.922;4.760;2022-10-16T05:13:58;2.27;;;2.00;;
20671;SDS011;10495;50.922;4.760;2022-10-16T05:16:24;6.17;;;2.17;;
20671;SDS011;10495;50.922;4.760;2022-10-16T05:18:51;2.00;;;1.80;;
20671;SDS011;10495;50.922;4.760;2022-10-16T05:21:17;2.37;;;1.80;;
20671;SDS011;10495;50.922;4.760;2022-10-16T05:23:45;7.00;;;1.73;;
20671;SDS011;10495;50.922;4.760;2022-10-16T05:26:10;4.53;;;2.13;;
20671;SDS011;10495;50.922;4.760;2022-10-16T05:28:36;3.57;;;2.10;;
20671;SDS011;10495;50.922;4.760;2022-10-16T05:31:05;2.43;;;1.93;;
20671;SDS011;10495;50.922;4.760;2022-10-16T05:33:31;4.37;;;2.00;;
20671;SDS011;10495;50.922;4.760;2022-10-16T05:36:00;3.87;;;1.57;;
20671;SDS011;10495;50.922;4.760;2022-10-16T05:38:29;1.97;;;1.70;;
20671;SDS011;10495;50.922;4.760;2022-10-16T05:40:55;3.57;;;1.87;;
20671;SDS011;10495;50.922;4.760;2022-10-16T05:43:21;6.53;;;2.20;;
20671;SDS011;10495;50.922;4.760;2022-10-16T05:45:56;2.63;;;1.87;;
20671;SDS011;10495;50.922;4.760;2022-10-16T05:48:24;3.50;;;2.20;;
20671;SDS011;10495;50.922;4.760;2022-10-16T05:51:11;3.03;;;1.80;;
20671;SDS011;10495;50.922;4.760;2022-10-16T05:53:37;6.93;;;2.10;;
20671;SDS011;10495;50.922;4.760;2022-10-16T05:56:03;4.00;;;2.00;;
20671;SDS011;10495;50.922;4.760;2022-10-16T05:58:31;2.13;;;1.80;;
20671;SDS011;10495;50.922;4.760;2022-10-16T06:01:10;3.90;;;2.50;;
20671;SDS011;10495;50.922;4.760;2022-10-16T06:03:40;2.40;;;1.60;;
20671;SDS011;10495;50.922;4.760;2022-10-16T06:11:27;4.33;;;1.70;;
20671;SDS011;10495;50.922;4.760;2022-10-16T06:13:55;2.73;;;2.07;;
20671;SDS011;10495;50.922;4.760;2022-10-16T06:16:24;4.00;;;1.93;;
20671;SDS011;10495;50.922;4.760;2022-10-16T06:18:51;3.23;;;1.70;;
20671;SDS011;10495;50.922;4.760;2022-10-16T06:21:18;2.33;;;1.90;;
20671;SDS011;10495;50.922;4.760;2022-10-16T06:23:46;5.60;;;2.10;;
20671;SDS011;10495;50.922;4.760;2022-10-16T06:26:13;2.90;;;1.70;;
20671;SDS011;10495;50.922;4.760;2022-10-16T06:28:40;3.50;;;1.90;;
20671;SDS011;10495;50.922;4.760;2022-10-16T06:31:06;3.60;;;1.97;;
20671;SDS011;10495;50.922;4.760;2022-10-16T06:33:33;3.70;;;2.30;;
20671;SDS011;10495;50.922;4.760;2022-10-16T06:38:28;2.67;;;2.00;;
20671;SDS011;10495;50.922;4.760;2022-10-16T06:40:54;2.27;;;1.73;;
20671;SDS011;10495;50.922;4.760;2022-10-16T06:43:20;2.30;;;1.87;;
20671;SDS011;10495;50.922;4.760;2022-10-16T06:45:55;4.57;;;2.20;;
20671;SDS011;10495;50.922;4.760;2022-10-16T06:48:21;3.93;;;2.50;;
20671;SDS011;10495;50.922;4.760;2022-10-16T06:50:54;2.77;;;2.20;;
20671;SDS011;10495;50.922;4.760;2022-10-16T06:53:24;5.77;;;2.37;;
20671;SDS011;10495;50.922;4.760;2022-10-16T06:55:51;2.93;;;2.10;;
20671;SDS011;10495;50.922;4.760;2022-10-16T06:58:17;3.50;;;2.37;;
20671;SDS011;10495;50.922;4.760;2022-10-16T07:00:43;4.10;;;2.80;;
20671;SDS011;10495;50.922;4.760;2022-10-16T07:03:08;4.33;;;2.00;;
20671;SDS011;10495;50.922;4.760;2022-10-16T07:05:40;4.17;;;2.53;;
20671;SDS011;10495;50.922;4.760;2022-10-16T07:08:07;3.07;;;2.07;;
20671;SDS011;10495;50.922;4.760;2022-10-16T07:10:33;2.97;;;2.17;;
20671;SDS011;10495;50.922;4.760;2022-10-16T07:12:59;2.87;;;2.00;;
20671;SDS011;10495;50.922;4.760;2022-10-16T07:15:25;2.50;;;2.30;;
20671;SDS011;10495;50.922;4.760;2022-10-16T07:17:51;6.20;;;2.93;;
20671;SDS011;10495;50.922;4.760;2022-10-16T07:20:17;5.50;;;2.23;;
20671;SDS011;10495;50.922;4.760;2022-10-16T07:22:43;5.90;;;2.10;;
20671;SDS011;10495;50.922;4.760;2022-10-16T07:25:09;2.77;;;2.27;;
20671;SDS011;10495;50.922;4.760;2022-10-16T07:27:34;2.77;;;2.10;;
20671;SDS011;10495;50.922;4.760;2022-10-16T07:30:00;2.27;;;1.63;;
20671;SDS011;10495;50.922;4.760;2022-10-16T07:32:25;3.70;;;2.50;;
20671;SDS011;10495;50.922;4.760;2022-10-16T07:34:51;4.00;;;2.20;;
20671;SDS011;10495;50.922;4.760;2022-10-16T07:37:17;3.93;;;2.00;;
20671;SDS011;10495;50.922;4.760;2022-10-16T07:39:43;3.53;;;2.40;;
20671;SDS011;10495;50.922;4.760;2022-10-16T07:42:08;3.50;;;2.33;;
20671;SDS011;10495;50.922;4.760;2022-10-16T07:44:34;4.57;;;2.53;;
20671;SDS011;10495;50.922;4.760;2022-10-16T07:47:00;3.93;;;2.40;;
20671;SDS011;10495;50.922;4.760;2022-10-16T07:49:25;6.67;;;2.60;;
20671;SDS011;10495;50.922;4.760;2022-10-16T07:51:51;2.47;;;2.20;;
20671;SDS011;10495;50.922;4.760;2022-10-16T07:54:16;3.27;;;2.30;;
20671;SDS011;10495;50.922;4.760;2022-10-16T07:56:42;3.03;;;2.73;;
20671;SDS011;10495;50.922;4.760;2022-10-16T07:59:07;3.23;;;2.03;;
20671;SDS011;10495;50.922;4.760;2022-10-16T08:01:33;6.03;;;1.90;;
20671;SDS011;10495;50.922;4.760;2022-10-16T08:03:59;2.80;;;1.80;;
20671;SDS011;10495;50.922;4.760;2022-10-16T08:06:25;8.67;;;2.50;;
20671;SDS011;10495;50.922;4.760;2022-10-16T08:08:51;3.40;;;2.10;;
20671;SDS011;10495;50.922;4.760;2022-10-16T08:11:16;4.23;;;1.90;;
20671;SDS011;10495;50.922;4.760;2022-10-16T08:13:42;5.43;;;2.23;;
20671;SDS011;10495;50.922;4.760;2022-10-16T08:16:08;2.67;;;2.03;;
20671;SDS011;10495;50.922;4.760;2022-10-16T08:18:35;2.83;;;1.90;;
20671;SDS011;10495;50.922;4.760;2022-10-16T08:21:02;2.87;;;1.60;;
20671;SDS011;10495;50.922;4.760;2022-10-16T08:23:29;2.27;;;1.87;;
20671;SDS011;10495;50.922;4.760;2022-10-16T08:25:55;2.50;;;1.80;;
20671;SDS011;10495;50.922;4.760;2022-10-16T08:28:22;2.77;;;2.03;;
20671;SDS011;10495;50.922;4.760;2022-10-16T08:30:48;3.20;;;1.70;;
20671;SDS011;10495;50.922;4.760;2022-10-16T08:33:14;3.10;;;2.00;;
20671;SDS011;10495;50.922;4.760;2022-10-16T08:35:39;1.83;;;1.63;;
20671;SDS011;10495;50.922;4.760;2022-10-16T08:38:05;2.60;;;1.67;;
20671;SDS011;10495;50.922;4.760;2022-10-16T08:40:32;1.67;;;1.43;;
20671;SDS011;10495;50.922;4.760;2022-10-16T08:51:19;3.87;;;1.57;;
20671;SDS011;10495;50.922;4.760;2022-10-16T08:53:53;3.47;;;1.60;;
20671;SDS011;10495;50.922;4.760;2022-10-16T08:56:22;4.87;;;1.90;;
20671;SDS011;10495;50.922;4.760;2022-10-16T08:58:48;2.97;;;1.80;;
20671;SDS011;10495;50.922;4.760;2022-10-16T09:01:16;4.57;;;1.70;;
20671;SDS011;10495;50.922;4.760;2022-10-16T09:06:46;2.50;;;1.77;;
20671;SDS011;10495;50.922;4.760;2022-10-16T09:23:44;4.55;;;1.50;;
20671;SDS011;10495;50.922;4.760;2022-10-16T09:26:11;1.73;;;1.20;;
20671;SDS011;10495;50.922;4.760;2022-10-16T09:28:40;4.10;;;1.17;;
20671;SDS011;10495;50.922;4.760;2022-10-16T09:31:08;3.97;;;1.30;;
20671;SDS011;10495;50.922;4.760;2022-10-16T09:33:45;2.17;;;1.15;;
20671;SDS011;10495;50.922;4.760;2022-10-16T09:36:15;4.90;;;1.08;;
20671;SDS011;10495;50.922;4.760;2022-10-16T09:38:41;4.35;;;1.35;;
20671;SDS011;10495;50.922;4.760;2022-10-16T09:43:39;2.83;;;1.73;;
20671;SDS011;10495;50.922;4.760;2022-10-16T09:46:27;4.47;;;3.33;;
20671;SDS011;10495;50.922;4.760;2022-10-16T09:48:56;3.70;;;1.60;;
20671;SDS011;10495;50.922;4.760;2022-10-16T09:51:27;4.85;;;2.13;;
20671;SDS011;10495;50.922;4.760;2022-10-16T09:54:02;2.67;;;1.00;;
20671;SDS011;10495;50.922;4.760;2022-10-16T09:56:34;3.17;;;1.20;;
20671;SDS011;10495;50.922;4.760;2022-10-16T09:59:11;4.17;;;1.30;;
20671;SDS011;10495;50.922;4.760;2022-10-16T10:01:40;5.10;;;1.80;;
20671;SDS011;10495;50.922;4.760;2022-10-16T10:04:07;2.43;;;1.20;;
20671;SDS011;10495;50.922;4.760;2022-10-16T10:06:35;3.22;;;1.40;;
20671;SDS011;10495;50.922;4.760;2022-10-16T10:09:14;3.13;;;1.20;;
20671;SDS011;10495;50.922;4.760;2022-10-16T10:12:04;6.40;;;1.63;;
20671;SDS011;10495;50.922;4.760;2022-10-16T10:14:38;6.17;;;2.80;;
20671;SDS011;10495;50.922;4.760;2022-10-16T10:19:44;2.73;;;1.40;;
20671;SDS011;10495;50.922;4.760;2022-10-16T10:22:58;5.47;;;1.40;;
20671;SDS011;10495;50.922;4.760;2022-10-16T10:30:33;2.17;;;1.10;;
20671;SDS011;10495;50.922;4.760;2022-10-16T10:35:54;4.90;;;2.93;;
20671;SDS011;10495;50.922;4.760;2022-10-16T10:38:42;3.07;;;2.23;;
20671;SDS011;10495;50.922;4.760;2022-10-16T10:41:17;4.80;;;1.53;;
20671;SDS011;10495;50.922;4.760;2022-10-16T10:43:54;2.20;;;1.00;;
20671;SDS011;10495;50.922;4.760;2022-10-16T10:55:39;1.87;;;1.00;;
20671;SDS011;10495;50.922;4.760;2022-10-16T11:00:55;2.23;;;1.60;;
20671;SDS011;10495;50.922;4.760;2022-10-16T11:06:59;4.23;;;1.00;;
20671;SDS011;10495;50.922;4.760;2022-10-16T11:12:00;3.57;;;2.17;;
20671;SDS011;10495;50.922;4.760;2022-10-16T11:14:31;1.60;;;0.83;;
20671;SDS011;10495;50.922;4.760;2022-10-16T11:17:14;1.27;;;0.90;;
20671;SDS011;10495;50.922;4.760;2022-10-16T11:20:13;3.40;;;1.40;;
20671;SDS011;10495;50.922;4.760;2022-10-16T11:23:00;7.77;;;1.23;;
20671;SDS011;10495;50.922;4.760;2022-10-16T11:25:33;3.60;;;1.07;;
20671;SDS011;10495;50.922;4.760;2022-10-16T11:30:41;3.57;;;1.30;;
20671;SDS011;10495;50.922;4.760;2022-10-16T11:44:01;3.93;;;1.07;;
20671;SDS011;10495;50.922;4.760;2022-10-16T11:46:50;1.20;;;0.73;;
20671;SDS011;10495;50.922;4.760;2022-10-16T11:49:31;3.83;;;1.27;;
20671;SDS011;10495;50.922;4.760;2022-10-16T11:57:24;3.03;;;1.20;;
20671;SDS011;10495;50.922;4.760;2022-10-16T12:02:49;3.13;;;1.20;;
20671;SDS011;10495;50.922;4.760;2022-10-16T12:05:32;1.50;;;0.90;;
20671;SDS011;10495;50.922;4.760;2022-10-16T12:10:40;2.30;;;1.20;;
20671;SDS011;10495;50.922;4.760;2022-10-16T12:18:32;3.33;;;1.80;;
20671;SDS011;10495;50.922;4.760;2022-10-16T12:20:58;3.07;;;2.00;;
20671;SDS011;10495;50.922;4.760;2022-10-16T12:23:30;6.20;;;1.40;;
20671;SDS011;10495;50.922;4.760;2022-10-16T12:25:57;3.37;;;1.47;;
20671;SDS011;10495;50.922;4.760;2022-10-16T12:28:33;4.53;;;1.70;;
20671;SDS011;10495;50.922;4.760;2022-10-16T12:31:02;3.90;;;1.67;;
20671;SDS011;10495;50.922;4.760;2022-10-16T12:33:33;1.90;;;1.67;;
20671;SDS011;10495;50.922;4.760;2022-10-16T12:36:06;4.30;;;2.00;;
20671;SDS011;10495;50.922;4.760;2022-10-16T12:38:47;6.00;;;1.37;;
20671;SDS011;10495;50.922;4.760;2022-10-16T12:41:23;3.57;;;1.40;;
20671;SDS011;10495;50.922;4.760;2022-10-16T12:44:00;4.03;;;1.37;;
20671;SDS011;10495;50.922;4.760;2022-10-16T12:51:53;4.10;;;2.07;;
20671;SDS011;10495;50.922;4.760;2022-10-16T12:57:24;1.23;;;1.03;;
20671;SDS011;10495;50.922;4.760;2022-10-16T13:06:31;4.97;;;2.10;;
20671;SDS011;10495;50.922;4.760;2022-10-16T13:22:06;1.77;;;1.00;;
20671;SDS011;10495;50.922;4.760;2022-10-16T13:27:35;1.60;;;1.07;;
20671;SDS011;10495;50.922;4.760;2022-10-16T13:30:08;1.77;;;1.10;;
20671;SDS011;10495;50.922;4.760;2022-10-16T13:32:43;2.83;;;1.20;;
20671;SDS011;10495;50.922;4.760;2022-10-16T13:35:18;5.00;;;1.80;;
20671;SDS011;10495;50.922;4.760;2022-10-16T13:37:46;1.67;;;1.10;;
20671;SDS011;10495;50.922;4.760;2022-10-16T13:40:21;3.97;;;1.55;;
20671;SDS011;10495;50.922;4.760;2022-10-16T13:42:50;5.20;;;1.37;;
20671;SDS011;10495;50.922;4.760;2022-10-16T13:45:22;1.40;;;0.80;;
20671;SDS011;10495;50.922;4.760;2022-10-16T13:47:50;3.90;;;1.77;;
20671;SDS011;10495;50.922;4.760;2022-10-16T13:50:26;4.80;;;1.57;;
20671;SDS011;10495;50.922;4.760;2022-10-16T13:52:51;4.60;;;1.92;;
20671;SDS011;10495;50.922;4.760;2022-10-16T13:55:27;3.50;;;2.17;;
20671;SDS011;10495;50.922;4.760;2022-10-16T13:57:53;3.83;;;1.67;;
20671;SDS011;10495;50.922;4.760;2022-10-16T14:00:32;4.03;;;1.50;;
20671;SDS011;10495;50.922;4.760;2022-10-16T14:03:01;2.03;;;1.13;;
20671;SDS011;10495;50.922;4.760;2022-10-16T14:05:29;5.27;;;2.37;;
20671;SDS011;10495;50.922;4.760;2022-10-16T14:07:55;4.37;;;2.10;;
20671;SDS011;10495;50.922;4.760;2022-10-16T14:10:24;3.47;;;1.80;;
20671;SDS011;10495;50.922;4.760;2022-10-16T14:13:05;2.97;;;1.20;;
20671;SDS011;10495;50.922;4.760;2022-10-16T14:15:33;3.73;;;1.10;;
20671;SDS011;10495;50.922;4.760;2022-10-16T14:18:00;3.50;;;1.27;;
20671;SDS011;10495;50.922;4.760;2022-10-16T14:20:26;3.23;;;1.63;;
20671;SDS011;10495;50.922;4.760;2022-10-16T14:23:04;3.13;;;2.00;;
20671;SDS011;10495;50.922;4.760;2022-10-16T14:25:47;5.70;;;1.93;;
20671;SDS011;10495;50.922;4.760;2022-10-16T14:33:21;3.20;;;1.77;;
20671;SDS011;10495;50.922;4.760;2022-10-16T14:35:46;4.38;;;1.98;;
20671;SDS011;10495;50.922;4.760;2022-10-16T14:38:35;4.50;;;2.07;;
20671;SDS011;10495;50.922;4.760;2022-10-16T14:41:05;3.30;;;1.70;;
20671;SDS011;10495;50.922;4.760;2022-10-16T14:45:59;2.57;;;1.17;;
20671;SDS011;10495;50.922;4.760;2022-10-16T14:48:26;3.93;;;2.63;;
20671;SDS011;10495;50.922;4.760;2022-10-16T14:50:52;3.65;;;1.92;;
20671;SDS011;10495;50.922;4.760;2022-10-16T14:53:18;4.30;;;1.70;;
20671;SDS011;10495;50.922;4.760;2022-10-16T14:55:43;1.90;;;1.33;;
20671;SDS011;10495;50.922;4.760;2022-10-16T14:58:20;3.07;;;1.50;;
20671;SDS011;10495;50.922;4.760;2022-10-16T15:00:47;2.27;;;1.40;;
20671;SDS011;10495;50.922;4.760;2022-10-16T15:03:14;4.57;;;1.40;;
20671;SDS011;10495;50.922;4.760;2022-10-16T15:05:39;3.20;;;1.87;;
20671;SDS011;10495;50.922;4.760;2022-10-16T15:08:05;3.70;;;1.57;;
20671;SDS011;10495;50.922;4.760;2022-10-16T15:10:32;5.03;;;2.23;;
20671;SDS011;10495;50.922;4.760;2022-10-16T15:13:02;4.87;;;1.80;;
20671;SDS011;10495;50.922;4.760;2022-10-16T15:15:36;2.57;;;1.70;;
20671;SDS011;10495;50.922;4.760;2022-10-16T15:18:05;5.07;;;1.87;;
20671;SDS011;10495;50.922;4.760;2022-10-16T15:20:34;3.00;;;1.40;;
20671;SDS011;10495;50.922;4.760;2022-10-16T15:23:05;2.80;;;1.67;;
20671;SDS011;10495;50.922;4.760;2022-10-16T15:25:39;4.17;;;2.60;;
20671;SDS011;10495;50.922;4.760;2022-10-16T15:28:08;4.37;;;2.07;;
20671;SDS011;10495;50.922;4.760;2022-10-16T15:30:35;2.70;;;1.40;;
20671;SDS011;10495;50.922;4.760;2022-10-16T15:33:01;3.10;;;1.23;;
20671;SDS011;10495;50.922;4.760;2022-10-16T15:35:27;10.77;;;6.17;;
20671;SDS011;10495;50.922;4.760;2022-10-16T15:37:53;8.07;;;4.40;;
20671;SDS011;10495;50.922;4.760;2022-10-16T15:40:19;6.17;;;3.33;;
20671;SDS011;10495;50.922;4.760;2022-10-16T15:42:46;3.90;;;3.17;;
20671;SDS011;10495;50.922;4.760;2022-10-16T15:45:12;4.90;;;2.80;;
20671;SDS011;10495;50.922;4.760;2022-10-16T15:47:39;6.27;;;4.17;;
20671;SDS011;10495;50.922;4.760;2022-10-16T15:50:06;4.90;;;2.63;;
20671;SDS011;10495;50.922;4.760;2022-10-16T15:52:32;6.67;;;2.00;;
20671;SDS011;10495;50.922;4.760;2022-10-16T15:54:58;3.17;;;1.70;;
20671;SDS011;10495;50.922;4.760;2022-10-16T15:57:24;5.90;;;2.27;;
20671;SDS011;10495;50.922;4.760;2022-10-16T15:59:50;6.20;;;3.20;;
20671;SDS011;10495;50.922;4.760;2022-10-16T16:02:15;6.00;;;3.27;;
20671;SDS011;10495;50.922;4.760;2022-10-16T16:04:41;3.30;;;2.37;;
20671;SDS011;10495;50.922;4.760;2022-10-16T16:07:07;4.67;;;2.37;;
20671;SDS011;10495;50.922;4.760;2022-10-16T16:09:33;2.93;;;2.10;;
20671;SDS011;10495;50.922;4.760;2022-10-16T16:11:59;5.07;;;2.73;;
20671;SDS011;10495;50.922;4.760;2022-10-16T16:14:25;3.83;;;2.80;;
20671;SDS011;10495;50.922;4.760;2022-10-16T16:16:53;4.10;;;1.77;;
20671;SDS011;10495;50.922;4.760;2022-10-16T16:19:19;4.33;;;1.63;;
20671;SDS011;10495;50.922;4.760;2022-10-16T16:21:46;6.97;;;4.10;;
20671;SDS011;10495;50.922;4.760;2022-10-16T16:24:12;10.47;;;5.50;;
20671;SDS011;10495;50.922;4.760;2022-10-16T16:26:38;5.17;;;4.57;;
20671;SDS011;10495;50.922;4.760;2022-10-16T16:29:08;5.60;;;3.93;;
20671;SDS011;10495;50.922;4.760;2022-10-16T16:31:37;5.07;;;4.17;;
20671;SDS011;10495;50.922;4.760;2022-10-16T16:34:03;7.10;;;2.83;;
20671;SDS011;10495;50.922;4.760;2022-10-16T16:36:29;5.63;;;2.97;;
20671;SDS011;10495;50.922;4.760;2022-10-16T16:38:55;5.60;;;3.13;;
20671;SDS011;10495;50.922;4.760;2022-10-16T16:41:22;3.83;;;2.87;;
20671;SDS011;10495;50.922;4.760;2022-10-16T16:43:50;5.10;;;2.70;;
20671;SDS011;10495;50.922;4.760;2022-10-16T16:46:17;2.70;;;2.30;;
20671;SDS011;10495;50.922;4.760;2022-10-16T16:48:43;3.63;;;2.27;;
20671;SDS011;10495;50.922;4.760;2022-10-16T16:51:11;3.87;;;2.40;;
20671;SDS011;10495;50.922;4.760;2022-10-16T16:53:43;4.57;;;2.97;;
20671;SDS011;10495;50.922;4.760;2022-10-16T16:56:09;4.57;;;3.37;;
20671;SDS011;10495;50.922;4.760;2022-10-16T16:58:35;6.90;;;4.40;;
20671;SDS011;10495;50.922;4.760;2022-10-16T17:01:01;10.60;;;4.40;;
20671;SDS011;10495;50.922;4.760;2022-10-16T17:03:28;7.30;;;4.17;;
20671;SDS011;10495;50.922;4.760;2022-10-16T17:06:02;6.97;;;3.17;;
20671;SDS011;10495;50.922;4.760;2022-10-16T17:08:30;7.63;;;3.50;;
20671;SDS011;10495;50.922;4.760;2022-10-16T17:10:56;6.20;;;3.43;;
20671;SDS011;10495;50.922;4.760;2022-10-16T17:13:22;5.17;;;3.67;;
20671;SDS011;10495;50.922;4.760;2022-10-16T17:15:50;6.33;;;3.70;;
20671;SDS011;10495;50.922;4.760;2022-10-16T17:18:17;5.90;;;3.50;;
20671;SDS011;10495;50.922;4.760;2022-10-16T17:20:44;8.70;;;4.73;;
20671;SDS011;10495;50.922;4.760;2022-10-16T17:23:10;10.27;;;5.80;;
20671;SDS011;10495;50.922;4.760;2022-10-16T17:25:37;7.40;;;4.80;;
20671;SDS011;10495;50.922;4.760;2022-10-16T17:28:03;5.20;;;4.10;;